createdAt,value
2019-03-13T00:03:34.412Z,5.17
2019-03-13T00:33:38.507Z,5.05
2019-03-13T01:03:43.880Z,3.75
2019-03-13T01:33:48.094Z,3.40
2019-03-13T02:03:52.133Z,3.60
2019-03-13T02:33:56.232Z,4.03
2019-03-13T03:04:01.767Z,4.10
2019-03-13T03:34:05.535Z,3.72
2019-03-13T04:04:09.287Z,3.00
2019-03-13T04:34:13.251Z,3.35
2019-03-13T05:04:17.050Z,3.77
2019-03-13T05:34:20.917Z,4.40
2019-03-13T06:04:24.732Z,5.03
2019-03-13T06:34:29.548Z,3.12
2019-03-13T07:04:35.019Z,5.17
2019-03-13T07:34:43.419Z,4.78
2019-03-13T08:04:47.431Z,5.85
2019-03-13T08:34:52.771Z,5.55
2019-03-13T09:05:06.961Z,8.45
2019-03-13T09:35:12.433Z,3.80
2019-03-13T10:05:18.038Z,2.85
2019-03-13T10:35:23.474Z,2.33
2019-03-13T11:05:41.180Z,1.80
2019-03-13T11:36:03.038Z,5.03
2019-03-13T12:06:14.165Z,2.80
2019-03-13T12:36:35.693Z,2.55
2019-03-13T13:06:47.011Z,2.17
2019-03-13T13:36:51.070Z,2.60
2019-03-13T14:06:55.034Z,2.55
2019-03-13T14:36:58.799Z,2.77
2019-03-13T15:07:02.776Z,3.92
2019-03-13T15:37:06.788Z,4.05
2019-03-13T16:07:10.769Z,3.45
2019-03-13T16:37:14.571Z,4.12
2019-03-13T17:07:18.607Z,6.58
2019-03-13T17:37:22.355Z,5.10
2019-03-13T18:07:26.295Z,5.42
2019-03-13T18:37:30.059Z,5.95
2019-03-13T19:07:34.941Z,7.70
2019-03-13T19:37:38.979Z,14.80
2019-03-13T20:07:42.975Z,22.50
2019-03-13T20:37:47.609Z,8.55
2019-03-13T21:07:51.372Z,6.17
2019-03-13T21:37:55.165Z,3.85
2019-03-13T22:07:59.065Z,3.70
2019-03-13T22:38:02.844Z,4.58
2019-03-13T23:08:06.622Z,3.87
2019-03-13T23:38:10.768Z,3.67
